地図

経路データ

SID SEASON NUMBER BASIN SUBBASIN NAME ISO_TIME NATURE LAT LON WMO_WIND WMO_PRES WMO_AGENCY TRACK_TYPE DIST2LAND LANDFALL IFLAG USA_AGENCY USA_ATCF_ID USA_LAT USA_LON USA_RECORD USA_STATUS USA_WIND USA_PRES USA_SSHS USA_R34_NE USA_R34_SE USA_R34_SW USA_R34_NW USA_R50_NE USA_R50_SE USA_R50_SW USA_R50_NW USA_R64_NE USA_R64_SE USA_R64_SW USA_R64_NW USA_POCI USA_ROCI USA_RMW USA_EYE TOKYO_LAT TOKYO_LON TOKYO_GRADE TOKYO_WIND TOKYO_PRES TOKYO_R50_DIR TOKYO_R50_LONG TOKYO_R50_SHORT TOKYO_R30_DIR TOKYO_R30_LONG TOKYO_R30_SHORT TOKYO_LAND CMA_LAT CMA_LON CMA_CAT CMA_WIND CMA_PRES HKO_LAT HKO_LON HKO_CAT HKO_WIND HKO_PRES NEWDELHI_LAT NEWDELHI_LON NEWDELHI_GRADE NEWDELHI_WIND NEWDELHI_PRES NEWDELHI_CI NEWDELHI_DP NEWDELHI_POCI REUNION_LAT REUNION_LON REUNION_TYPE REUNION_WIND REUNION_PRES REUNION_TNUM REUNION_CI REUNION_RMW REUNION_R34_NE REUNION_R34_SE REUNION_R34_SW REUNION_R34_NW REUNION_R50_NE REUNION_R50_SE REUNION_R50_SW REUNION_R50_NW REUNION_R64_NE REUNION_R64_SE REUNION_R64_SW REUNION_R64_NW BOM_LAT BOM_LON BOM_TYPE BOM_WIND BOM_PRES BOM_TNUM BOM_CI BOM_RMW BOM_R34_NE BOM_R34_SE BOM_R34_SW BOM_R34_NW BOM_R50_NE BOM_R50_SE BOM_R50_SW BOM_R50_NW BOM_R64_NE BOM_R64_SE BOM_R64_SW BOM_R64_NW BOM_ROCI BOM_POCI BOM_EYE BOM_POS_METHOD BOM_PRES_METHOD NADI_LAT NADI_LON NADI_CAT NADI_WIND NADI_PRES WELLINGTON_LAT WELLINGTON_LON WELLINGTON_WIND WELLINGTON_PRES DS824_LAT DS824_LON DS824_STAGE DS824_WIND DS824_PRES TD9636_LAT TD9636_LON TD9636_STAGE TD9636_WIND TD9636_PRES TD9635_LAT TD9635_LON TD9635_WIND TD9635_PRES TD9635_ROCI NEUMANN_LAT NEUMANN_LON NEUMANN_CLASS NEUMANN_WIND NEUMANN_PRES MLC_LAT MLC_LON MLC_CLASS MLC_WIND MLC_PRES USA_GUST BOM_GUST BOM_GUST_PER REUNION_GUST REUNION_GUST_PER USA_SEAHGT USA_SEARAD_NE USA_SEARAD_SE USA_SEARAD_SW USA_SEARAD_NW STORM_SPEED STORM_DIR
1885021S16076 1885 6 SI MM NOT_NAMED 1885-01-21 06:00:00 NR -15.7000 76.4000 reunion main 2032 2021 _____O________ -1 -15.7000 76.4000 99 9.90000 2 257
1885021S16076 1885 6 SI MM NOT_NAMED 1885-01-21 09:00:00 NR -15.7200 76.3048 main 2021 2011 _____P________ -1 -15.7200 76.3048 99 2 258
1885021S16076 1885 6 SI MM NOT_NAMED 1885-01-21 12:00:00 NR -15.7416 76.2044 main 2011 1998 _____P________ -1 -15.7416 76.2044 99 2 257
1885021S16076 1885 6 SI MM NOT_NAMED 1885-01-21 15:00:00 NR -15.7666 76.0936 main 1998 1987 _____P________ -1 -15.7666 76.0936 99 2 256
1885021S16076 1885 6 SI MM NOT_NAMED 1885-01-21 18:00:00 NR -15.7966 75.9671 main 1987 1967 _____P________ -1 -15.7966 75.9671 99 3 256
1885021S16076 1885 6 SI MM NOT_NAMED 1885-01-21 21:00:00 NR -15.8333 75.8197 main 1967 1953 _____P________ -1 -15.8333 75.8197 99 3 255
1885021S16076 1885 6 SI MM NOT_NAMED 1885-01-22 00:00:00 NR -15.8783 75.6463 main 1943 1933 _____P________ -1 -15.8783 75.6463 99 4 255
1885021S16076 1885 6 SI MM NOT_NAMED 1885-01-22 03:00:00 NR -15.9334 75.4415 main 1923 1899 _____P________ -1 -15.9334 75.4415 99 4 254
1885021S16076 1885 6 SI MM NOT_NAMED 1885-01-22 06:00:00 NR -16.0000 75.2000 reunion main 1899 1865 _____O________ -1 -16.0000 75.2000 99 9.90000 5 254
1885021S16076 1885 6 SI MM NOT_NAMED 1885-01-22 09:00:00 NR -16.0793 74.9185 main 1865 1831 _____P________ -1 -16.0793 74.9185 99 6 253
1885021S16076 1885 6 SI MM NOT_NAMED 1885-01-22 12:00:00 NR -16.1704 74.6013 main 1831 1797 _____P________ -1 -16.1704 74.6013 99 7 253
1885021S16076 1885 6 SI MM NOT_NAMED 1885-01-22 15:00:00 NR -16.2722 74.2546 main 1797 1753 _____P________ -1 -16.2722 74.2546 99 7 253
1885021S16076 1885 6 SI MM NOT_NAMED 1885-01-22 18:00:00 NR -16.3835 73.8848 main 1753 1709 _____P________ -1 -16.3835 73.8848 99 8 252
1885021S16076 1885 6 SI MM NOT_NAMED 1885-01-22 21:00:00 NR -16.5030 73.4982 main 1709 1665 _____P________ -1 -16.5030 73.4982 99 8 252
1885021S16076 1885 6 SI MM NOT_NAMED 1885-01-23 00:00:00 NR -16.6296 73.1009 main 1665 1618 _____P________ -1 -16.6296 73.1009 99 8 251
1885021S16076 1885 6 SI MM NOT_NAMED 1885-01-23 03:00:00 NR -16.7623 72.6994 main 1618 1574 _____P________ -1 -16.7623 72.6994 99 8 251
1885021S16076 1885 6 SI MM NOT_NAMED 1885-01-23 06:00:00 NR -16.9000 72.3000 reunion main 1574 1540 _____O________ -1 -16.9000 72.3000 99 9.90000 8 250
1885021S16076 1885 6 SI MM NOT_NAMED 1885-01-23 09:00:00 NR -17.0297 71.9368 main 1530 1493 _____P________ -1 -17.0297 71.9368 99 7 249
1885021S16076 1885 6 SI MM NOT_NAMED 1885-01-23 12:00:00 NR -17.1651 71.5725 main 1493 1449 _____P________ -1 -17.1651 71.5725 99 8 248
1885021S16076 1885 6 SI MM NOT_NAMED 1885-01-23 15:00:00 NR -17.3064 71.2059 main 1449 1415 _____P________ -1 -17.3064 71.2059 99 8 248
1885021S16076 1885 6 SI MM NOT_NAMED 1885-01-23 18:00:00 NR -17.4534 70.8360 main 1402 1368 _____P________ -1 -17.4534 70.8360 99 8 247
1885021S16076 1885 6 SI MM NOT_NAMED 1885-01-23 21:00:00 NR -17.6062 70.4615 main 1368 1322 _____P________ -1 -17.6062 70.4615 99 8 247
1885021S16076 1885 6 SI MM NOT_NAMED 1885-01-24 00:00:00 NR -17.7650 70.0815 main 1322 1278 _____P________ -1 -17.7650 70.0815 99 8 246
1885021S16076 1885 6 SI MM NOT_NAMED 1885-01-24 03:00:00 NR -17.9295 69.6947 main 1278 1232 _____P________ -1 -17.9295 69.6947 99 8 246
1885021S16076 1885 6 SI MM NOT_NAMED 1885-01-24 06:00:00 NR -18.1000 69.3000 reunion main 1232 1185 _____O________ -1 -18.1000 69.3000 99 9.90000 9 246
1885021S16076 1885 6 SI MM NOT_NAMED 1885-01-24 09:00:00 NR -18.2855 68.8676 main 1185 1129 _____P________ -1 -18.2855 68.8676 99 9 246
1885021S16076 1885 6 SI MM NOT_NAMED 1885-01-24 12:00:00 NR -18.4788 68.4234 main 1129 1083 _____P________ -1 -18.4788 68.4234 99 9 245
1885021S16076 1885 6 SI MM NOT_NAMED 1885-01-24 15:00:00 NR -18.6763 67.9743 main 1083 1038 _____P________ -1 -18.6763 67.9743 99 9 245
1885021S16076 1885 6 SI MM NOT_NAMED 1885-01-24 18:00:00 NR -18.8742 67.5272 main 1027 982 _____P________ -1 -18.8742 67.5272 99 9 245
1885021S16076 1885 6 SI MM NOT_NAMED 1885-01-24 21:00:00 NR -19.0690 67.0891 main 982 939 _____P________ -1 -19.0690 67.0891 99 9 245
1885021S16076 1885 6 SI MM NOT_NAMED 1885-01-25 00:00:00 NR -19.2572 66.6671 main 937 894 _____P________ -1 -19.2572 66.6671 99 9 245
1885021S16076 1885 6 SI MM NOT_NAMED 1885-01-25 03:00:00 NR -19.4353 66.2683 main 894 850 _____P________ -1 -19.4353 66.2683 99 8 245
1885021S16076 1885 6 SI MM NOT_NAMED 1885-01-25 06:00:00 NR -19.6000 65.9000 reunion main 850 817 _____O________ -1 -19.6000 65.9000 99 9.90000 7 245
1885021S16076 1885 6 SI MM NOT_NAMED 1885-01-25 09:00:00 NR -19.7271 65.6023 main 817 795 _____P________ -1 -19.7271 65.6023 99 6 246
1885021S16076 1885 6 SI MM NOT_NAMED 1885-01-25 12:00:00 NR -19.8406 65.3368 main 785 763 _____P________ -1 -19.8406 65.3368 99 5 245
1885021S16076 1885 6 SI MM NOT_NAMED 1885-01-25 15:00:00 NR -19.9452 65.0944 main 763 741 _____P________ -1 -19.9452 65.0944 99 5 245
1885021S16076 1885 6 SI MM NOT_NAMED 1885-01-25 18:00:00 NR -20.0458 64.8656 main 741 720 _____P________ -1 -20.0458 64.8656 99 5 245
1885021S16076 1885 6 SI MM NOT_NAMED 1885-01-25 21:00:00 NR -20.1469 64.6412 main 709 688 _____P________ -1 -20.1469 64.6412 99 5 244
1885021S16076 1885 6 SI MM NOT_NAMED 1885-01-26 00:00:00 NR -20.2532 64.4118 main 688 667 _____P________ -1 -20.2532 64.4118 99 5 243
1885021S16076 1885 6 SI MM NOT_NAMED 1885-01-26 03:00:00 NR -20.3694 64.1679 main 667 636 _____P________ -1 -20.3694 64.1679 99 5 243
1885021S16076 1885 6 SI MM NOT_NAMED 1885-01-26 06:00:00 NR -20.5000 63.9000 reunion main 636 605 _____O________ -1 -20.5000 63.9000 99 9.90000 6 242
1885021S16076 1885 6 SI MM NOT_NAMED 1885-01-26 09:00:00 NR -20.6577 63.5772 main 605 575 _____P________ -1 -20.6577 63.5772 99 7 242
1885021S16076 1885 6 SI MM NOT_NAMED 1885-01-26 12:00:00 NR -20.8278 63.2340 main 564 536 _____P________ -1 -20.8278 63.2340 99 7 242
1885021S16076 1885 6 SI MM NOT_NAMED 1885-01-26 15:00:00 NR -21.0084 62.8730 main 536 498 _____P________ -1 -21.0084 62.8730 99 8 242
1885021S16076 1885 6 SI MM NOT_NAMED 1885-01-26 18:00:00 NR -21.1974 62.4971 main 498 463 _____P________ -1 -21.1974 62.4971 99 8 242
1885021S16076 1885 6 SI MM NOT_NAMED 1885-01-26 21:00:00 NR -21.3929 62.1090 main 463 430 _____P________ -1 -21.3929 62.1090 99 8 242
1885021S16076 1885 6 SI MM NOT_NAMED 1885-01-27 00:00:00 NR -21.5931 61.7116 main 430 399 _____P________ -1 -21.5931 61.7116 99 8 242
1885021S16076 1885 6 SI MM NOT_NAMED 1885-01-27 03:00:00 NR -21.7961 61.3076 main 399 371 _____P________ -1 -21.7961 61.3076 99 9 242
1885021S16076 1885 6 SI MM NOT_NAMED 1885-01-27 06:00:00 NR -22.0000 60.9000 reunion main 371 346 _____O________ -1 -22.0000 60.9000 99 9.90000 8 242
1885021S16076 1885 6 SI MM NOT_NAMED 1885-01-27 09:00:00 NR -22.1968 60.5010 main 346 326 _____P________ -1 -22.1968 60.5010 99 8 242
1885021S16076 1885 6 SI MM NOT_NAMED 1885-01-27 12:00:00 NR -22.3961 60.0958 main 326 311 _____P________ -1 -22.3961 60.0958 99 9 242
1885021S16076 1885 6 SI MM NOT_NAMED 1885-01-27 15:00:00 NR -22.5971 59.6856 main 312 302 _____P________ -1 -22.5971 59.6856 99 9 242
1885021S16076 1885 6 SI MM NOT_NAMED 1885-01-27 18:00:00 NR -22.7990 59.2714 main 305 300 _____P________ -1 -22.7990 59.2714 99 9 242
1885021S16076 1885 6 SI MM NOT_NAMED 1885-01-27 21:00:00 NR -23.0010 58.8546 main 305 301 _____P________ -1 -23.0010 58.8546 99 9 242
1885021S16076 1885 6 SI MM NOT_NAMED 1885-01-28 00:00:00 NR -23.2023 58.4362 main 310 308 _____P________ -1 -23.2023 58.4362 99 9 242
1885021S16076 1885 6 SI MM NOT_NAMED 1885-01-28 03:00:00 NR -23.4022 58.0176 main 325 314 _____P________ -1 -23.4022 58.0176 99 9 243
1885021S16076 1885 6 SI MM NOT_NAMED 1885-01-28 06:00:00 NR -23.6000 57.6000 reunion main 316 309 _____O________ -1 -23.6000 57.6000 99 9.90000 9 243
1885021S16076 1885 6 SI MM NOT_NAMED 1885-01-28 09:00:00 NR -23.8139 57.1407 main 309 309 _____P________ -1 -23.8139 57.1407 99 9 243
1885021S16076 1885 6 SI MM NOT_NAMED 1885-01-28 12:00:00 NR -24.0284 56.6755 main 311 308 _____P________ -1 -24.0284 56.6755 99 9 243
1885021S16076 1885 6 SI MM NOT_NAMED 1885-01-28 15:00:00 NR -24.2393 56.2140 main 318 318 _____P________ -1 -24.2393 56.2140 99 9 243
1885021S16076 1885 6 SI MM NOT_NAMED 1885-01-28 18:00:00 NR -24.4425 55.7657 main 335 335 _____P________ -1 -24.4425 55.7657 99 9 244
1885021S16076 1885 6 SI MM NOT_NAMED 1885-01-28 21:00:00 NR -24.6341 55.3403 main 359 359 _____P________ -1 -24.6341 55.3403 99 8 244
1885021S16076 1885 6 SI MM NOT_NAMED 1885-01-29 00:00:00 NR -24.8100 54.9476 main 386 386 _____P________ -1 -24.8100 54.9476 99 8 244
1885021S16076 1885 6 SI MM NOT_NAMED 1885-01-29 03:00:00 NR -24.9666 54.5975 main 415 415 _____P________ -1 -24.9666 54.5975 99 7 244
1885021S16076 1885 6 SI MM NOT_NAMED 1885-01-29 06:00:00 NR -25.1000 54.3000 reunion main 434 434 _____O________ -1 -25.1000 54.3000 99 9.90000 5 244
1885021S16076 1885 6 SI MM NOT_NAMED 1885-01-29 09:00:00 NR -25.2078 54.0621 main 451 451 _____P________ -1 -25.2078 54.0621 99 4 243
1885021S16076 1885 6 SI MM NOT_NAMED 1885-01-29 12:00:00 NR -25.2922 53.8793 main 469 469 _____P________ -1 -25.2922 53.8793 99 3 243
1885021S16076 1885 6 SI MM NOT_NAMED 1885-01-29 15:00:00 NR -25.3569 53.7436 main 486 486 _____P________ -1 -25.3569 53.7436 99 2 242
1885021S16076 1885 6 SI MM NOT_NAMED 1885-01-29 18:00:00 NR -25.4051 53.6474 main 489 489 _____P________ -1 -25.4051 53.6474 99 2 239
1885021S16076 1885 6 SI MM NOT_NAMED 1885-01-29 21:00:00 NR -25.4402 53.5829 main 489 489 _____P________ -1 -25.4402 53.5829 99 1 237
1885021S16076 1885 6 SI MM NOT_NAMED 1885-01-30 00:00:00 NR -25.4656 53.5421 main 504 504 _____P________ -1 -25.4656 53.5421 99 1 230
1885021S16076 1885 6 SI MM NOT_NAMED 1885-01-30 03:00:00 NR -25.4844 53.5171 main 504 504 _____P________ -1 -25.4844 53.5171 99 1 232
1885021S16076 1885 6 SI MM NOT_NAMED 1885-01-30 06:00:00 NR -25.5000 53.5000 reunion main 504 _____O________ -1 -25.5000 53.5000 99 9.90000 0 0

IBTrACS Databaseについて

本データベースは、米国NOAAが公開する1842年以降の世界の熱帯低気圧のベストトラックデータアーカイブInternational Best Track Archive for Climate Stewardship (IBTrACS)を、ウェブで閲覧しやすい形式に変換したものです。

最終更新日:2021-12-01